Time;durP1;ratioP1;P1;durP2;ratioP2;P2;SDS_P1;SDS_P2;PMS_P1;PMS_P2;Temp;Humidity;BMP_temperature;BMP_pressure;BME280_temperature;BME280_humidity;BME280_pressure;Samples;Min_cycle;Max_cycle;Signal;HPM_P1;HPM_P2
2022/02/01 00:01:55;;;;;;;25.13;16.00;;;3.30;99.90;;;;;;4997507;28;20184;-91
2022/02/01 00:04:33;;;;;;;32.92;17.75;;;3.40;99.90;;;;;;4997841;28;20180;-91
2022/02/01 00:07:13;;;;;;;31.80;18.05;;;3.30;99.90;;;;;;4998227;28;20215;-90
2022/02/01 00:09:56;;;;;;;29.80;16.45;;;3.40;99.90;;;;;;4997126;28;20258;-90
2022/02/01 00:12:39;;;;;;;31.48;15.07;;;3.40;99.90;;;;;;4997630;28;20223;-91
2022/02/01 00:33:48;;;;;;;24.13;15.50;;;3.50;99.90;;;;;;4998302;28;20170;-91
2022/02/01 00:36:27;;;;;;;27.05;14.75;;;3.50;99.90;;;;;;4996851;28;20206;-90
2022/02/01 00:38:59;;;;;;;27.02;16.35;;;3.50;99.90;;;;;;4997038;28;20559;-91
2022/02/01 00:41:40;;;;;;;32.15;17.27;;;3.50;99.90;;;;;;4997384;28;20204;-91
2022/02/01 00:44:05;;;;;;;28.88;16.58;;;3.50;99.90;;;;;;4997026;28;20175;-90
2022/02/01 00:46:31;;;;;;;27.27;17.30;;;3.50;99.90;;;;;;4996722;28;20210;-90
2022/02/01 00:48:57;;;;;;;32.78;16.70;;;3.50;99.90;;;;;;4996949;28;20267;-90
2022/02/01 00:51:23;;;;;;;30.77;15.90;;;3.50;99.90;;;;;;4996446;28;20315;-90
2022/02/01 00:53:49;;;;;;;27.90;16.10;;;3.50;99.90;;;;;;4996500;28;20407;-90
2022/02/01 00:56:15;;;;;;;26.00;15.40;;;3.50;99.90;;;;;;4996968;28;20200;-90
2022/02/01 00:58:41;;;;;;;27.10;16.40;;;3.40;99.90;;;;;;4996810;28;20388;-90
2022/02/01 01:01:08;;;;;;;23.65;14.52;;;3.40;99.90;;;;;;4996426;28;20412;-90
2022/02/01 01:03:34;;;;;;;27.83;15.80;;;3.40;99.90;;;;;;4996405;28;20771;-91
2022/02/01 01:06:00;;;;;;;19.70;13.90;;;3.40;99.90;;;;;;4997752;28;20444;-90
2022/02/01 01:08:26;;;;;;;28.10;15.80;;;3.30;99.90;;;;;;4996796;28;20465;-90
2022/02/01 01:10:52;;;;;;;24.13;14.32;;;3.40;99.90;;;;;;5002138;28;20711;-91
2022/02/01 01:16:19;;;;;;;25.48;13.43;;;3.40;99.90;;;;;;4997740;28;20487;-90
2022/02/01 01:43:40;;;;;;;23.63;14.18;;;3.50;99.90;;;;;;4996963;28;20195;-91
2022/02/01 01:54:04;;;;;;;28.33;15.60;;;3.50;99.90;;;;;;4996806;28;20171;-90
2022/02/01 01:56:34;;;;;;;28.30;14.30;;;3.40;99.90;;;;;;4995652;28;20262;-91
2022/02/01 01:59:03;;;;;;;37.10;19.65;;;3.40;99.90;;;;;;4995158;28;20276;-90
2022/02/01 02:01:30;;;;;;;33.42;18.50;;;3.40;99.90;;;;;;4995358;28;20664;-91
2022/02/01 02:03:56;;;;;;;29.00;15.77;;;3.50;99.90;;;;;;4996298;28;20283;-90
2022/02/01 02:06:22;;;;;;;33.25;17.73;;;3.50;99.90;;;;;;4995418;28;20679;-90
2022/02/01 02:08:51;;;;;;;33.40;18.00;;;3.50;99.90;;;;;;4999242;28;20243;-91
2022/02/01 02:14:20;;;;;;;26.23;17.30;;;3.50;99.90;;;;;;5012646;28;20198;-89
2022/02/01 02:16:50;;;;;;;32.63;16.45;;;3.50;99.90;;;;;;5009657;28;20184;-90
2022/02/01 02:19:16;;;;;;;29.75;16.45;;;3.60;99.90;;;;;;4994480;28;20172;-91
2022/02/01 02:21:56;;;;;;;27.73;17.30;;;3.60;99.90;;;;;;4994241;28;20184;-90
2022/02/01 02:24:25;;;;;;;32.53;16.08;;;3.60;99.90;;;;;;4994374;28;20179;-91
2022/02/01 02:26:52;;;;;;;32.65;15.80;;;3.60;99.90;;;;;;4994153;28;20187;-91
2022/02/01 02:29:18;;;;;;;31.65;14.70;;;3.60;99.90;;;;;;4994262;28;20180;-91
2022/02/01 02:31:45;;;;;;;28.40;13.90;;;3.60;99.90;;;;;;4994127;28;20219;-91
2022/02/01 02:34:14;;;;;;;19.70;13.85;;;3.70;99.90;;;;;;4993903;28;20219;-90
2022/02/01 02:36:51;;;;;;;22.20;14.07;;;3.60;99.90;;;;;;4995361;28;20176;-90
2022/02/01 02:41:52;;;;;;;22.20;14.13;;;3.60;99.90;;;;;;4995157;28;20207;-91
2022/02/01 02:47:05;;;;;;;29.67;14.95;;;3.60;99.90;;;;;;4995504;28;20544;-91
2022/02/01 02:49:31;;;;;;;25.48;15.38;;;3.60;99.90;;;;;;4996713;28;20207;-91
2022/02/01 02:51:57;;;;;;;25.17;16.13;;;3.60;99.90;;;;;;4994458;28;20712;-91
2022/02/01 02:54:24;;;;;;;29.50;16.53;;;3.60;99.90;;;;;;4994122;28;20176;-91
2022/02/01 02:57:04;;;;;;;17.17;13.93;;;3.60;99.90;;;;;;5005259;28;20467;-90
2022/02/01 02:59:31;;;;;;;30.33;13.95;;;3.50;99.90;;;;;;5001066;28;20612;-90
2022/02/01 03:01:57;;;;;;;34.67;15.85;;;3.60;99.90;;;;;;4996606;28;20184;-90
2022/02/01 03:04:25;;;;;;;28.52;15.18;;;3.50;99.90;;;;;;4995190;28;20179;-90
2022/02/01 03:06:53;;;;;;;26.35;14.13;;;3.50;99.90;;;;;;5001031;28;20195;-91
2022/02/01 03:09:22;;;;;;;27.13;15.03;;;3.50;99.90;;;;;;4956097;28;1187238;-91
2022/02/01 03:11:50;;;;;;;21.13;13.75;;;3.50;99.90;;;;;;4994388;28;20223;-91
2022/02/01 03:14:43;;;;;;;20.27;13.27;;;3.50;99.90;;;;;;4994098;28;20557;-90
2022/02/01 03:19:52;;;;;;;20.67;13.57;;;3.40;99.90;;;;;;4995455;28;20207;-91
2022/02/01 03:22:26;;;;;;;25.85;14.32;;;3.40;99.90;;;;;;4994112;28;20183;-90
2022/02/01 03:24:55;;;;;;;24.67;14.40;;;3.40;99.90;;;;;;4994337;28;20689;-90
2022/02/01 03:27:22;;;;;;;24.85;14.45;;;3.40;99.90;;;;;;4994524;28;20652;-90
2022/02/01 03:29:48;;;;;;;25.80;15.18;;;3.30;99.90;;;;;;4995884;28;20207;-91
2022/02/01 03:32:15;;;;;;;19.50;12.70;;;3.30;99.90;;;;;;4998032;28;20215;-91
2022/02/01 03:34:41;;;;;;;38.30;25.42;;;3.30;99.90;;;;;;4998559;28;20200;-90
2022/02/01 03:37:07;;;;;;;39.35;24.42;;;3.40;99.90;;;;;;5002475;28;20675;-91
2022/02/01 03:39:33;;;;;;;30.48;19.40;;;3.40;99.90;;;;;;4999900;28;20207;-91
2022/02/01 03:42:01;;;;;;;37.30;20.33;;;3.40;99.90;;;;;;4998232;28;20186;-90
2022/02/01 03:44:27;;;;;;;33.03;18.60;;;3.40;99.90;;;;;;4998123;28;20768;-90
2022/02/01 03:47:02;;;;;;;27.90;14.40;;;3.40;99.90;;;;;;4997753;28;20176;-91
2022/02/01 03:49:33;;;;;;;22.35;14.65;;;3.40;99.90;;;;;;4997818;28;20392;-90
2022/02/01 03:51:59;;;;;;;24.23;13.35;;;3.40;99.90;;;;;;4998015;28;20578;-90
2022/02/01 03:54:30;;;;;;;20.52;12.63;;;3.40;99.90;;;;;;4997833;28;20200;-91
2022/02/01 03:56:57;;;;;;;24.95;13.10;;;3.40;99.90;;;;;;4997982;28;20584;-91
2022/02/01 03:59:23;;;;;;;24.73;13.70;;;3.40;99.90;;;;;;5000823;28;20230;-91
2022/02/01 04:01:54;;;;;;;19.63;11.77;;;3.40;99.90;;;;;;5011924;28;20176;-90
2022/02/01 04:04:19;;;;;;;25.60;11.90;;;3.30;99.90;;;;;;4999332;28;20396;-91
2022/02/01 04:06:45;;;;;;;23.93;13.33;;;3.30;99.90;;;;;;4997523;28;20634;-90
2022/02/01 04:09:11;;;;;;;17.23;12.03;;;3.30;99.90;;;;;;4997240;28;20479;-90
2022/02/01 04:11:37;;;;;;;16.88;12.20;;;3.20;99.90;;;;;;4997257;28;20249;-90
2022/02/01 04:14:03;;;;;;;20.00;11.90;;;3.20;99.90;;;;;;5000202;28;20263;-89
2022/02/01 04:16:29;;;;;;;25.10;12.37;;;3.10;99.90;;;;;;5001645;28;20419;-90
2022/02/01 04:18:54;;;;;;;18.77;13.73;;;3.00;99.90;;;;;;4997777;28;20175;-90
2022/02/01 04:21:20;;;;;;;19.27;11.63;;;3.00;99.90;;;;;;4997311;28;20223;-90
2022/02/01 04:23:46;;;;;;;20.23;12.33;;;2.90;99.90;;;;;;4997422;28;20613;-91
2022/02/01 04:26:12;;;;;;;15.53;10.87;;;2.90;99.90;;;;;;4998444;28;20492;-89
2022/02/01 04:28:37;;;;;;;21.30;11.83;;;2.90;99.90;;;;;;4997713;28;20428;-91
2022/02/01 04:31:03;;;;;;;20.87;11.37;;;2.90;99.90;;;;;;4997108;28;20211;-90
2022/02/01 04:33:29;;;;;;;19.50;11.00;;;2.90;99.90;;;;;;4996962;28;20204;-90
2022/02/01 04:35:55;;;;;;;16.40;10.20;;;3.00;99.90;;;;;;5007774;28;20433;-90
2022/02/01 04:38:20;;;;;;;24.23;11.70;;;3.00;99.90;;;;;;5007060;28;20180;-90
2022/02/01 04:40:52;;;;;;;18.37;10.93;;;3.00;99.90;;;;;;5015700;28;20203;-90
2022/02/01 04:43:18;;;;;;;15.65;9.68;;;3.00;99.90;;;;;;5010760;28;20415;-90
2022/02/01 04:45:44;;;;;;;24.60;11.10;;;3.10;99.90;;;;;;4998994;28;20200;-91
2022/02/01 04:48:10;;;;;;;21.10;11.40;;;3.10;99.90;;;;;;5003516;28;20430;-90
2022/02/01 04:50:38;;;;;;;17.50;11.33;;;3.10;99.90;;;;;;4997046;28;20464;-89
2022/02/01 04:53:04;;;;;;;22.00;11.00;;;3.20;99.90;;;;;;4996465;28;20519;-90
2022/02/01 04:55:50;;;;;;;20.27;10.67;;;3.20;99.90;;;;;;4996944;28;20228;-90
2022/02/01 04:58:15;;;;;;;18.67;10.13;;;3.20;99.90;;;;;;4999666;28;20234;-91
2022/02/01 05:00:41;;;;;;;15.40;10.97;;;3.30;99.90;;;;;;4998026;28;20200;-91
2022/02/01 05:03:06;;;;;;;15.53;10.80;;;3.30;99.90;;;;;;4999734;28;20188;-90
2022/02/01 05:05:32;;;;;;;18.27;10.33;;;3.30;99.90;;;;;;4996484;28;20227;-90
2022/02/01 05:08:04;;;;;;;17.03;10.37;;;3.30;99.90;;;;;;4998977;28;20191;-89
2022/02/01 05:10:32;;;;;;;20.23;10.60;;;3.30;99.90;;;;;;4996703;28;20218;-90
2022/02/01 05:13:20;;;;;;;18.20;10.50;;;3.30;99.90;;;;;;4997642;28;20216;-89
2022/02/01 05:15:44;;;;;;;18.10;10.40;;;3.30;99.90;;;;;;4996994;28;20208;-91
2022/02/01 05:18:20;;;;;;;24.40;11.25;;;3.30;99.90;;;;;;4996349;28;20176;-90
2022/02/01 05:20:49;;;;;;;16.45;9.30;;;3.40;99.90;;;;;;4996263;28;20307;-89
2022/02/01 05:23:16;;;;;;;16.08;8.57;;;3.40;99.90;;;;;;4996105;28;20184;-89
2022/02/01 05:25:43;;;;;;;14.88;9.35;;;3.40;99.90;;;;;;4995992;28;20219;-90
2022/02/01 05:28:09;;;;;;;16.65;9.98;;;3.40;99.90;;;;;;4996196;28;20180;-90
2022/02/01 05:30:35;;;;;;;18.07;9.80;;;3.50;99.90;;;;;;4996278;28;20566;-91
2022/02/01 05:33:01;;;;;;;19.07;10.60;;;3.50;99.90;;;;;;4995877;28;20219;-90
2022/02/01 05:35:28;;;;;;;17.02;9.63;;;3.50;99.90;;;;;;4996767;28;20498;-91
2022/02/01 05:37:53;;;;;;;13.23;9.55;;;3.60;99.90;;;;;;4996944;28;20267;-90
2022/02/01 05:40:20;;;;;;;14.60;10.77;;;3.60;99.90;;;;;;5003991;28;20243;-89
2022/02/01 05:42:58;;;;;;;16.20;10.98;;;3.60;99.90;;;;;;5009494;28;20187;-91
2022/02/01 05:45:24;;;;;;;17.23;11.38;;;3.60;99.90;;;;;;4995138;28;20234;-90
2022/02/01 05:47:51;;;;;;;18.00;9.95;;;3.60;99.90;;;;;;4984380;28;20180;-91
2022/02/01 05:50:16;;;;;;;13.85;10.13;;;3.70;99.90;;;;;;4987161;28;20697;-91
2022/02/01 05:52:42;;;;;;;14.53;9.70;;;3.70;99.90;;;;;;4995304;28;20215;-91
2022/02/01 05:55:11;;;;;;;17.37;10.20;;;3.70;99.90;;;;;;4996986;28;20204;-91
2022/02/01 05:57:37;;;;;;;20.52;10.00;;;3.70;99.90;;;;;;4989735;28;20793;-90
2022/02/01 06:00:05;;;;;;;15.20;10.63;;;3.80;99.90;;;;;;4985921;28;20219;-90
2022/02/01 06:02:31;;;;;;;16.15;9.90;;;3.90;99.90;;;;;;4994489;28;20425;-91
2022/02/01 06:04:57;;;;;;;16.13;9.73;;;3.90;99.90;;;;;;4994500;28;20258;-91
2022/02/01 06:07:22;;;;;;;20.90;11.20;;;3.90;99.90;;;;;;4995405;28;20184;-90
2022/02/01 06:09:48;;;;;;;13.90;8.83;;;3.90;99.90;;;;;;5005287;28;20242;-90
2022/02/01 06:12:14;;;;;;;17.47;10.10;;;3.90;99.90;;;;;;5006570;28;20222;-90
2022/02/01 06:14:40;;;;;;;16.57;9.03;;;3.90;99.90;;;;;;4998771;28;20208;-90
2022/02/01 06:17:06;;;;;;;14.20;9.40;;;3.80;99.90;;;;;;4994085;28;20188;-91
2022/02/01 06:19:34;;;;;;;17.10;10.07;;;3.70;99.90;;;;;;4993127;28;20878;-90
2022/02/01 06:22:01;;;;;;;17.05;11.18;;;3.60;99.90;;;;;;4994672;28;20180;-91
2022/02/01 06:24:27;;;;;;;17.70;12.35;;;3.50;99.90;;;;;;4990301;28;20183;-90
2022/02/01 06:26:53;;;;;;;23.58;11.68;;;3.40;99.90;;;;;;4993355;28;20188;-90
2022/02/01 06:29:19;;;;;;;20.27;11.50;;;3.30;99.90;;;;;;4988229;28;20192;-90
2022/02/01 06:31:45;;;;;;;14.20;10.20;;;3.20;99.90;;;;;;4994210;28;20623;-90
2022/02/01 06:34:11;;;;;;;17.10;10.43;;;3.10;99.90;;;;;;4993459;28;20400;-90
2022/02/01 06:36:37;;;;;;;22.43;10.70;;;3.10;99.90;;;;;;4994749;28;20239;-90
2022/02/01 06:39:05;;;;;;;18.00;10.40;;;3.00;99.90;;;;;;4984214;28;20184;-91
2022/02/01 06:41:32;;;;;;;15.25;10.27;;;2.90;99.90;;;;;;4985427;28;20485;-90
2022/02/01 06:43:57;;;;;;;27.33;12.07;;;2.90;99.90;;;;;;4992658;28;20492;-90
2022/02/01 06:46:23;;;;;;;19.10;11.90;;;2.90;99.90;;;;;;4992189;28;20196;-90
2022/02/01 06:48:49;;;;;;;16.77;10.27;;;2.80;99.90;;;;;;4994881;28;20198;-91
2022/02/01 06:51:18;;;;;;;13.83;10.23;;;2.80;99.90;;;;;;5015531;28;20310;-91
2022/02/01 06:53:45;;;;;;;19.73;11.02;;;2.70;99.90;;;;;;4994405;28;20180;-90
2022/02/01 06:56:28;;;;;;;19.58;10.98;;;2.60;99.90;;;;;;4992912;28;20199;-91
2022/02/01 06:58:56;;;;;;;15.50;11.10;;;2.60;99.90;;;;;;4977916;28;20622;-90
2022/02/01 07:01:22;;;;;;;21.48;10.60;;;2.50;99.90;;;;;;4989615;28;20215;-89
2022/02/01 07:03:48;;;;;;;18.60;10.05;;;2.40;99.90;;;;;;4986925;28;20204;-89
2022/02/01 07:06:13;;;;;;;16.00;11.13;;;2.40;99.90;;;;;;4987043;28;20642;-90
2022/02/01 07:08:45;;;;;;;16.53;10.20;;;2.40;99.90;;;;;;4987286;28;20239;-90
2022/02/01 07:11:11;;;;;;;19.38;11.23;;;2.40;99.90;;;;;;4989567;28;20604;-89
2022/02/01 07:13:38;;;;;;;19.17;10.57;;;2.40;99.90;;;;;;4995602;28;20259;-90
2022/02/01 07:16:05;;;;;;;19.38;10.43;;;2.50;99.90;;;;;;5002923;28;20200;-89
2022/02/01 07:18:31;;;;;;;17.88;12.15;;;2.50;99.90;;;;;;4992909;28;20523;-90
2022/02/01 07:20:57;;;;;;;16.70;10.73;;;2.60;99.90;;;;;;5010097;28;20208;-89
2022/02/01 07:23:26;;;;;;;18.67;11.70;;;2.70;99.90;;;;;;4978410;28;20517;-89
2022/02/01 07:25:53;;;;;;;19.00;10.77;;;2.80;99.90;;;;;;4985188;28;20195;-90
2022/02/01 07:28:20;;;;;;;19.75;11.35;;;3.00;99.90;;;;;;4984425;28;20545;-90
2022/02/01 07:30:47;;;;;;;21.20;10.30;;;3.20;99.90;;;;;;4978908;28;20200;-91
2022/02/01 07:33:13;;;;;;;20.70;11.27;;;3.60;99.90;;;;;;4988654;28;20192;-89
2022/02/01 07:35:39;;;;;;;21.38;12.25;;;3.90;99.90;;;;;;4988026;28;20278;-90
2022/02/01 07:38:10;;;;;;;18.00;10.93;;;4.30;99.90;;;;;;4986787;28;20192;-90
2022/02/01 07:40:36;;;;;;;21.05;12.25;;;4.60;99.90;;;;;;4991899;28;20208;-90
2022/02/01 07:43:03;;;;;;;16.77;11.75;;;4.70;99.90;;;;;;4987531;28;20250;-91
2022/02/01 07:45:30;;;;;;;19.95;12.20;;;4.80;99.90;;;;;;4996435;28;20212;-90
2022/02/01 07:48:01;;;;;;;21.55;13.05;;;4.80;99.90;;;;;;4998474;28;20247;-90
2022/02/01 07:50:28;;;;;;;18.23;11.32;;;4.80;99.90;;;;;;4991867;28;20213;-90
2022/02/01 07:52:54;;;;;;;17.42;12.95;;;4.80;99.90;;;;;;4994921;28;20216;-90
2022/02/01 07:55:20;;;;;;;21.20;12.88;;;4.90;99.90;;;;;;4983505;28;20574;-90
2022/02/01 07:57:46;;;;;;;18.55;13.00;;;5.20;99.90;;;;;;4991382;28;20649;-90
2022/02/01 08:00:13;;;;;;;16.33;11.52;;;5.70;99.90;;;;;;4993192;28;20208;-91
2022/02/01 08:02:38;;;;;;;22.92;14.18;;;6.30;99.90;;;;;;4983313;28;20200;-90
2022/02/01 08:05:05;;;;;;;17.40;12.67;;;7.10;99.90;;;;;;4979278;28;20199;-91
2022/02/01 08:07:31;;;;;;;17.65;11.90;;;7.90;99.90;;;;;;4999550;28;20234;-91
2022/02/01 08:10:01;;;;;;;16.92;11.70;;;8.60;99.90;;;;;;4991451;28;20243;-90
2022/02/01 08:13:02;;;;;;;16.45;11.55;;;9.50;99.90;;;;;;4992851;28;20204;-91
2022/02/01 08:20:42;;;;;;;15.73;11.25;;;11.80;99.90;;;;;;5003460;28;20204;-90
2022/02/01 08:23:08;;;;;;;12.77;10.68;;;12.40;99.90;;;;;;4996042;28;20196;-90
2022/02/01 08:25:36;;;;;;;14.50;11.43;;;13.10;99.90;;;;;;4991025;28;20692;-91
2022/02/01 08:28:04;;;;;;;13.77;10.17;;;13.70;99.90;;;;;;4991382;28;20800;-90
2022/02/01 08:30:30;;;;;;;14.90;10.43;;;14.40;99.90;;;;;;4983666;28;20469;-90
2022/02/01 08:32:56;;;;;;;17.00;12.63;;;14.80;98.60;;;;;;4983650;28;20484;-90
2022/02/01 08:35:22;;;;;;;17.73;12.57;;;15.20;97.70;;;;;;4993999;28;20454;-91
2022/02/01 08:37:49;;;;;;;19.10;12.00;;;15.50;96.30;;;;;;5001002;28;20524;-91
2022/02/01 08:40:16;;;;;;;17.07;12.63;;;15.70;95.10;;;;;;4985360;28;20556;-90
2022/02/01 08:42:43;;;;;;;14.60;11.30;;;15.70;94.70;;;;;;4994009;28;20452;-91
2022/02/01 08:45:10;;;;;;;16.47;11.73;;;15.70;93.90;;;;;;4997290;28;20452;-92
2022/02/01 08:47:37;;;;;;;15.20;10.53;;;15.50;93.00;;;;;;4996177;28;20528;-90
2022/02/01 08:50:04;;;;;;;16.10;10.40;;;15.10;93.10;;;;;;4996376;28;20453;-91
2022/02/01 08:52:38;;;;;;;15.17;11.60;;;14.60;93.50;;;;;;5000672;28;20477;-91
2022/02/01 08:55:07;;;;;;;17.50;12.50;;;14.20;94.10;;;;;;5005510;28;20523;-90
2022/02/01 08:57:33;;;;;;;13.20;11.20;;;13.80;94.70;;;;;;4994435;28;20858;-90
2022/02/01 09:00:07;;;;;;;14.40;10.47;;;13.30;94.90;;;;;;4991761;28;20540;-89
2022/02/01 09:02:33;;;;;;;16.48;11.38;;;12.70;95.40;;;;;;4987036;28;20524;-90
2022/02/01 09:04:59;;;;;;;15.90;10.98;;;12.10;96.20;;;;;;4987412;28;20208;-89
2022/02/01 09:07:25;;;;;;;15.45;13.48;;;11.50;97.00;;;;;;4992114;28;20187;-90
2022/02/01 09:09:51;;;;;;;16.38;12.07;;;10.90;97.90;;;;;;4993774;28;20230;-89
2022/02/01 09:12:18;;;;;;;16.95;11.95;;;10.40;98.80;;;;;;4992072;28;20238;-89
2022/02/01 09:14:47;;;;;;;15.15;11.30;;;10.00;99.90;;;;;;4996095;28;20207;-89
2022/02/01 09:17:17;;;;;;;13.50;10.70;;;9.60;99.90;;;;;;5004098;28;20278;-89
2022/02/01 09:19:44;;;;;;;19.92;13.50;;;9.40;99.90;;;;;;4977987;28;20217;-89
2022/02/01 09:22:14;;;;;;;21.63;12.73;;;9.20;99.90;;;;;;4992406;28;20192;-89
2022/02/01 09:24:42;;;;;;;18.25;12.63;;;8.90;99.90;;;;;;4990879;28;20299;-90
2022/02/01 09:27:09;;;;;;;26.13;13.75;;;8.60;99.90;;;;;;4987558;28;20645;-90
2022/02/01 09:29:35;;;;;;;22.27;15.73;;;8.40;99.90;;;;;;5009292;28;20275;-89
2022/02/01 09:32:02;;;;;;;23.60;14.70;;;8.20;99.90;;;;;;4978266;28;20238;-90
2022/02/01 09:34:29;;;;;;;21.35;12.77;;;8.10;99.90;;;;;;5001913;28;20177;-90
2022/02/01 09:36:56;;;;;;;18.17;12.80;;;8.10;99.90;;;;;;5000873;28;20223;-89
2022/02/01 09:39:23;;;;;;;18.67;12.35;;;8.00;99.90;;;;;;5010951;28;20180;-91
2022/02/01 09:41:51;;;;;;;18.75;12.20;;;8.10;99.90;;;;;;4993388;28;20241;-91
2022/02/01 09:44:17;;;;;;;19.58;11.95;;;8.10;99.90;;;;;;4997900;28;20504;-90
2022/02/01 09:46:45;;;;;;;18.08;12.20;;;8.10;99.90;;;;;;4994498;28;20443;-91
2022/02/01 09:49:16;;;;;;;18.55;12.73;;;8.30;99.90;;;;;;4993999;28;20230;-92
2022/02/01 09:51:43;;;;;;;21.13;12.02;;;8.30;99.90;;;;;;4991144;28;20231;-90
2022/02/01 09:54:09;;;;;;;18.92;13.35;;;8.30;99.90;;;;;;4984919;28;20250;-89
2022/02/01 09:56:35;;;;;;;18.00;11.65;;;8.40;99.90;;;;;;4993393;28;20223;-90
2022/02/01 09:59:05;;;;;;;16.17;12.73;;;8.40;99.90;;;;;;4996327;28;20167;-90
2022/02/01 10:01:31;;;;;;;21.02;12.68;;;8.40;99.90;;;;;;4994659;28;20219;-90
2022/02/01 10:04:08;;;;;;;17.67;13.13;;;8.40;99.90;;;;;;4994516;28;20330;-90
2022/02/01 10:06:36;;;;;;;18.23;11.80;;;8.30;99.90;;;;;;5021743;28;20569;-89
2022/02/01 10:09:09;;;;;;;16.30;11.07;;;8.10;99.90;;;;;;5004924;28;20314;-89
2022/02/01 10:11:44;;;;;;;16.58;11.43;;;8.00;99.90;;;;;;4994437;28;20247;-90
2022/02/01 10:14:15;;;;;;;14.18;11.00;;;7.80;99.90;;;;;;4991371;28;20625;-91
2022/02/01 10:16:49;;;;;;;18.65;13.20;;;7.70;99.90;;;;;;4993789;28;20282;-91
2022/02/01 10:19:17;;;;;;;20.50;12.65;;;7.60;99.90;;;;;;4997609;28;20172;-91
2022/02/01 10:21:55;;;;;;;16.80;11.45;;;7.40;99.90;;;;;;4997289;28;20663;-91
2022/02/01 10:24:40;;;;;;;25.95;13.35;;;7.30;99.90;;;;;;4987265;28;20199;-90
2022/02/01 10:27:14;;;;;;;19.25;12.52;;;7.20;99.90;;;;;;4992361;28;20519;-91
2022/02/01 10:30:15;;;;;;;18.00;12.80;;;7.10;99.90;;;;;;4990408;28;20286;-91
2022/02/01 10:35:33;;;;;;;19.50;13.73;;;7.00;99.90;;;;;;4994584;28;20217;-91
2022/02/01 10:38:09;;;;;;;25.77;13.50;;;6.90;99.90;;;;;;4986235;28;20187;-91
2022/02/01 10:40:40;;;;;;;19.15;11.88;;;6.90;99.90;;;;;;5009901;28;20544;-90
2022/02/01 10:43:27;;;;;;;22.83;13.43;;;6.80;99.90;;;;;;4993290;28;20176;-93
2022/02/01 10:45:55;;;;;;;19.45;11.95;;;6.80;99.90;;;;;;4993127;28;20199;-91
2022/02/01 10:48:25;;;;;;;19.42;12.60;;;6.70;99.90;;;;;;4987188;28;20182;-90
2022/02/01 10:51:07;;;;;;;23.00;15.48;;;6.70;99.90;;;;;;4997851;28;20253;-90
2022/02/01 10:53:33;;;;;;;26.00;13.25;;;6.70;99.90;;;;;;4992703;28;20187;-90
2022/02/01 10:56:00;;;;;;;22.83;12.13;;;6.70;99.90;;;;;;4985236;28;20668;-89
2022/02/01 10:58:26;;;;;;;25.77;13.95;;;6.70;99.90;;;;;;4994890;28;20176;-88
2022/02/01 11:00:52;;;;;;;25.77;12.70;;;6.70;99.90;;;;;;4990122;28;20215;-89
2022/02/01 11:03:20;;;;;;;24.55;14.32;;;6.70;99.90;;;;;;4996462;28;20176;-87
2022/02/01 11:05:49;;;;;;;22.48;13.15;;;6.70;99.90;;;;;;4996914;28;20200;-89
2022/02/01 11:08:16;;;;;;;25.23;13.18;;;6.70;99.90;;;;;;4981045;28;20195;-89
2022/02/01 11:10:50;;;;;;;27.58;13.93;;;6.70;99.90;;;;;;4987723;28;20201;-88
2022/02/01 11:13:16;;;;;;;19.77;13.32;;;6.70;99.90;;;;;;4985638;28;20226;-88
2022/02/01 11:16:01;;;;;;;24.50;14.05;;;6.70;99.90;;;;;;4990262;28;20207;-88
2022/02/01 11:18:28;;;;;;;24.08;14.18;;;6.80;99.90;;;;;;4986108;28;20190;-89
2022/02/01 11:21:02;;;;;;;25.98;13.70;;;6.80;99.90;;;;;;4988660;28;20200;-90
2022/02/01 11:23:47;;;;;;;25.30;14.23;;;6.80;99.90;;;;;;4995175;28;20440;-89
2022/02/01 11:26:49;;;;;;;24.05;14.45;;;6.80;99.90;;;;;;4991441;28;20249;-89
2022/02/01 11:29:32;;;;;;;27.02;15.45;;;6.80;99.90;;;;;;4985997;28;20193;-88
2022/02/01 11:31:59;;;;;;;25.08;15.15;;;6.80;99.90;;;;;;4993943;28;20215;-89
2022/02/01 11:34:31;;;;;;;23.35;14.27;;;6.70;99.90;;;;;;4990026;28;20187;-88
2022/02/01 11:37:10;;;;;;;35.55;15.73;;;6.70;99.90;;;;;;4986435;28;20588;-88
2022/02/01 11:39:51;;;;;;;23.33;14.70;;;6.70;99.90;;;;;;5003817;28;20633;-88
2022/02/01 11:42:19;;;;;;;23.90;14.95;;;6.70;99.90;;;;;;4987392;28;20214;-88
2022/02/01 11:44:45;;;;;;;26.08;13.80;;;6.60;99.90;;;;;;4989592;28;20200;-89
2022/02/01 11:47:20;;;;;;;19.10;12.57;;;6.60;99.90;;;;;;4988282;28;20203;-88
2022/02/01 11:50:11;;;;;;;22.38;12.90;;;6.70;99.90;;;;;;5006698;28;20218;-88
2022/02/01 11:52:52;;;;;;;26.35;12.77;;;6.80;99.90;;;;;;4993144;28;20219;-89
2022/02/01 11:55:22;;;;;;;21.05;12.52;;;6.90;99.90;;;;;;4992727;28;20811;-88
2022/02/01 11:57:53;;;;;;;29.95;14.27;;;7.00;99.90;;;;;;4989440;28;20191;-87
2022/02/01 12:00:26;;;;;;;22.48;13.10;;;7.10;99.90;;;;;;4986764;28;20424;-87
2022/02/01 12:02:58;;;;;;;15.55;12.85;;;7.10;99.90;;;;;;4982959;28;20630;-89
2022/02/01 12:05:35;;;;;;;22.95;12.98;;;7.20;99.90;;;;;;4986358;28;20211;-89
2022/02/01 12:08:08;;;;;;;27.98;14.90;;;7.30;99.90;;;;;;4991554;28;20219;-88
2022/02/01 12:10:48;;;;;;;23.05;12.05;;;7.30;99.90;;;;;;4983635;28;20219;-88
2022/02/01 12:13:17;;;;;;;21.23;13.75;;;7.40;99.90;;;;;;4985634;28;20578;-87
2022/02/01 12:15:44;;;;;;;21.20;14.85;;;7.50;99.90;;;;;;4987708;28;20254;-88
2022/02/01 12:18:29;;;;;;;32.20;15.75;;;7.60;99.90;;;;;;4990337;28;20198;-89
2022/02/01 12:21:05;;;;;;;32.13;15.35;;;7.70;99.90;;;;;;4996320;28;20294;-86
2022/02/01 12:23:31;;;;;;;30.05;15.95;;;7.80;99.90;;;;;;4985740;28;20184;-90
2022/02/01 12:25:56;;;;;;;24.80;15.40;;;8.00;99.90;;;;;;4992577;28;20199;-89
2022/02/01 12:28:26;;;;;;;23.93;13.93;;;8.10;99.90;;;;;;4989543;28;20675;-89
2022/02/01 12:31:04;;;;;;;20.30;12.98;;;8.30;99.90;;;;;;4988950;28;20216;-89
2022/02/01 12:33:31;;;;;;;24.25;14.73;;;8.50;99.90;;;;;;4995668;28;20711;-89
2022/02/01 12:35:57;;;;;;;25.05;13.55;;;8.60;99.90;;;;;;5003546;28;20206;-88
2022/02/01 12:38:28;;;;;;;20.77;13.73;;;8.70;99.90;;;;;;4997444;28;20251;-87
2022/02/01 12:41:01;;;;;;;20.23;11.40;;;8.70;99.90;;;;;;4992188;28;20235;-89
2022/02/01 12:43:30;;;;;;;22.17;12.43;;;8.80;99.90;;;;;;4995581;28;20172;-86
2022/02/01 12:46:32;;;;;;;20.02;12.30;;;8.80;99.90;;;;;;4997800;28;20195;-89
2022/02/01 12:48:57;;;;;;;17.73;12.50;;;8.70;99.90;;;;;;4990531;28;20192;-87
2022/02/01 12:51:23;;;;;;;13.90;11.80;;;8.70;99.90;;;;;;4993705;28;20298;-87
2022/02/01 12:53:50;;;;;;;23.17;13.27;;;8.60;99.90;;;;;;4992659;28;20191;-89
2022/02/01 12:56:18;;;;;;;21.20;12.68;;;8.50;99.90;;;;;;4993302;28;20492;-87
2022/02/01 12:58:56;;;;;;;18.40;11.00;;;8.50;99.90;;;;;;5001953;28;20339;-91
2022/02/01 13:01:33;;;;;;;23.60;11.90;;;8.40;99.90;;;;;;4989348;28;20219;-86
2022/02/01 13:03:59;;;;;;;18.10;12.40;;;8.30;99.90;;;;;;4998034;28;20665;-89
2022/02/01 13:06:28;;;;;;;17.67;11.77;;;8.30;99.90;;;;;;4991758;28;20226;-89
2022/02/01 13:17:02;;;;;;;17.90;10.30;;;8.10;99.90;;;;;;4995312;28;20279;-90
2022/02/01 13:22:15;;;;;;;17.73;12.52;;;8.00;99.90;;;;;;4987369;28;20275;-86
2022/02/01 13:24:41;;;;;;;17.75;11.27;;;8.00;99.90;;;;;;4997733;28;20211;-87
2022/02/01 13:27:20;;;;;;;18.07;11.93;;;7.90;99.90;;;;;;4990063;28;20196;-87
2022/02/01 13:29:56;;;;;;;25.63;13.32;;;7.90;99.90;;;;;;4987746;28;20212;-87
2022/02/01 13:32:22;;;;;;;18.38;11.70;;;7.80;99.90;;;;;;4989360;28;20663;-90
2022/02/01 13:34:48;;;;;;;20.90;11.40;;;7.80;99.90;;;;;;4995078;28;20287;-87
2022/02/01 13:37:20;;;;;;;26.70;9.93;;;7.80;99.90;;;;;;5001190;28;20188;-90
2022/02/01 13:39:48;;;;;;;17.42;7.70;;;7.80;99.90;;;;;;5005763;28;20207;-88
2022/02/01 13:42:14;;;;;;;14.48;7.85;;;7.80;99.90;;;;;;4989793;28;20183;-87
2022/02/01 13:44:51;;;;;;;13.80;8.47;;;7.80;99.90;;;;;;4988563;28;20196;-87
2022/02/01 13:47:17;;;;;;;11.65;6.90;;;7.70;99.90;;;;;;4987250;28;20491;-87
2022/02/01 13:49:43;;;;;;;13.57;7.67;;;7.70;99.90;;;;;;4991272;28;20192;-91
2022/02/01 13:52:10;;;;;;;13.53;8.00;;;7.60;99.90;;;;;;4991824;28;20212;-87
2022/02/01 13:54:43;;;;;;;15.13;8.70;;;7.70;99.90;;;;;;4992989;28;20192;-90
2022/02/01 13:57:15;;;;;;;19.33;9.40;;;7.70;99.90;;;;;;4994140;28;20191;-88
2022/02/01 13:59:42;;;;;;;13.43;9.32;;;7.70;99.90;;;;;;5023047;28;20267;-87
2022/02/01 14:02:10;;;;;;;17.27;10.18;;;7.70;99.90;;;;;;5013844;28;20184;-90
2022/02/01 14:05:04;;;;;;;25.67;11.98;;;7.60;99.90;;;;;;4994323;28;20287;-87
2022/02/01 14:08:02;;;;;;;21.85;11.40;;;7.60;99.90;;;;;;4983896;28;20705;-89
2022/02/01 14:10:47;;;;;;;19.75;10.30;;;7.60;99.90;;;;;;4991326;28;20295;-90
2022/02/01 14:32:01;;;;;;;16.52;11.23;;;7.10;99.90;;;;;;4995819;28;20279;-87